Topsham, ME (04086)

7:55 AM EDT on September 19, 2014 (GMT -0400)
MEADOW CROSS | Change Station
CLOSE
Current Station
Personal Weather Station
Location: Topsham, ME
Elevation: 148 ft
Nearby Weather Stations

Elev 148 ft 43.98 °N, 69.99 °W | Updated 4 minutes ago

Clear
Clear
33.6 °F
Feels Like 34 °F
N
1.0
Wind Variable Wind from NE
Gusts 4.0 mph

Today
High -- | Low -- °F
--% Chance of Precip.
Yesterday
High -- | Low -- °F
Precip. -- in
6:23 AM 6:42 PM
Waning Crescent, 19% visible
Pressure 30.35 in
Visibility 10.0 miles
Clouds Clear
Windchill 34 °F
Dew Point 32 °F
Humidity 95%
Rainfall 0.00 in
Snow Depth Not available.
UV 0.0 out of 12
Pollen 3.20 out of 12
Ozone Good
Flu Activity Not available.
METAR KIWI 191053Z AUTO 00000KT 10SM CLR 01/M01 A3034 RMK AO2 SLP275 T00111006

More Conditions Fewer Conditions

Pressure 30.35 in
Visibility 10.0 miles
Clouds Clear
Windchill 34 °F
Dew Point 32 °F
Humidity 95%
Rainfall 0.00 in
Snow Depth Not available.
UV 0.0 out of 12
Pollen 3.20 out of 12
Ozone Good
Flu Activity Not available.
METAR KIWI 191053Z AUTO 00000KT 10SM CLR 01/M01 A3034 RMK AO2 SLP275 T00111006

More Conditions Fewer Conditions

10-Day Weather Forecast

Almanac

Astronomy

Sep. 19, 2014 Rise Set
Actual Time 6:23 AM EDT 6:42 PM EDT
Civil Twilight 5:54 AM EDT 7:11 PM EDT
Nautical Twilight 5:20 AM EDT 7:45 PM EDT
Astronomical Twilight 4:45 AM EDT 8:20 PM EDT
Moon 1:58 AM EDT 4:15 PM EDT
Length of Visible Light 13h 16m
Length of Day
12h 19m
Tomorrow will be 3m 0s shorter.
Waning Crescent, 19% of the Moon is Illuminated
Today
Waning Crescent
Sep 24
New
Oct 1
First Quarter
Oct 8
Full
Oct 15
Last Quarter

Today's Extremes

State Highs State Lows

Community

WunderPhotos

Upload Photos

1,754,597 photos uploaded!

Nearby

Air Quality

  Air Quality AQ Index Pollutant
Yesterday Good
OZONE
Current Good
OZONE
Friday Good
OZONE
Friday Good
PM2.5
Saturday Good
OZONE
Saturday Good
PM2.5

Snow Depth

Station Depth Elevation
No new snow has been reported.

Earthquake Activity

City Distance Mag. Time & Date
No recent earthquake activity has been reported nearby.
Minimum magnitude displayed is 2.5.

Coastal Water Temperatures

Place Temperature
Portland, ME 59.0 °F
Wells, ME 57.9 °F

Nearby Weather Stations